»·PEaware :: DCM420 KBFI-KOTH

DCM420 :: KBFI-KOTH

FLIGHT INFORMATION

Flight Status: Arrived
Operator: Unknown
More flights by this operator :: More flights under this callsign
Pilot: Brian A. (9771)
Aircraft: AIRBUS A320
(A320)
More flights by this aircraft type
Origin: KBFI Boeing Field/King Co Intl
United States
Destination: KOTH North Bend Mun
United States
More flights between these airports :: More routes between these airports
Route: +OLM V165 UBG V287 OTH
File this flight plan on PilotEdge
Remarks:
Altitude:
(Current/Filed)
32,000ft
Speed:
(Current/Filed)
450kts
Departed: 31-Dec-17 10:12 AM
Arrived: 31-Dec-17 11:00 AM
Distance/Time
Traveled:
260nm/0:48
Distance/Time
To Go:
Arrived

Flight Plot

Page will automatically refresh every two minutes.

Flight plan parsing failed; only flown route is shown


Map Options




Map Legend


Flown Route
Filed Route
Departure Airport
Arrival Airport
Navaid (VOR, NDB)
Fix

Horizontal Profiles

Position Reports

Time Latitude Longitude Heading Altitude Ground
Speed
31-Dec-17 09:46 47.540083 -122.317491 0 32ft 0kts
31-Dec-17 09:47 47.540083 -122.317491 0 32ft 0kts
31-Dec-17 09:48 47.540083 -122.317491 0 32ft 0kts
31-Dec-17 09:49 47.540083 -122.317491 0 32ft 0kts
31-Dec-17 09:50 47.540083 -122.317491 0 32ft 0kts
31-Dec-17 09:51 47.540083 -122.317491 0 32ft 0kts
31-Dec-17 09:52 47.540083 -122.317491 0 32ft 0kts
31-Dec-17 09:53 47.540083 -122.317491 0 32ft 0kts
31-Dec-17 09:54 47.540083 -122.317491 0 32ft 0kts
31-Dec-17 09:55 47.540083 -122.317491 0 32ft 0kts
31-Dec-17 09:56 47.540083 -122.317491 0 32ft 0kts
31-Dec-17 09:57 47.540083 -122.317491 0 32ft 0kts
31-Dec-17 09:58 47.540083 -122.317491 0 32ft 0kts
31-Dec-17 09:59 47.540083 -122.317491 0 32ft 0kts
31-Dec-17 10:00 47.540083 -122.317491 0 32ft 0kts
31-Dec-17 10:01 47.540083 -122.317491 0 32ft 0kts
31-Dec-17 10:02 47.540083 -122.317491 0 32ft 0kts
31-Dec-17 10:03 47.540083 -122.317491 0 32ft 0kts
31-Dec-17 10:04 47.540083 -122.317491 0 32ft 0kts
31-Dec-17 10:05 47.540083 -122.317491 0 32ft 0kts
31-Dec-17 10:06 47.540077 -122.317491 0 32ft 0kts
31-Dec-17 10:07 47.539455 -122.317491 0 32ft 0kts
31-Dec-17 10:08 47.539455 -122.317491 359 32ft 0kts
31-Dec-17 10:09 47.539456 -122.317491 359 32ft 0kts
31-Dec-17 10:10 47.539527 -122.316496 94 32ft 0kts
31-Dec-17 10:11 47.539533 -122.315589 86 32ft 1kts
31-Dec-17 10:12 47.538410 -122.311288 151 32ft 19kts
31-Dec-17 10:13 47.532538 -122.306346 149 32ft 28kts
31-Dec-17 10:14 47.525283 -122.300266 152 32ft 33kts
31-Dec-17 10:15 47.516874 -122.293519 160 32ft 21kts
31-Dec-17 10:16 47.516542 -122.292748 65 32ft 0kts
31-Dec-17 10:17 47.516704 -122.292287 58 32ft 7kts
31-Dec-17 10:18 47.535929 -122.307948 327 498ft 170kts
31-Dec-17 10:19 47.581972 -122.346693 330 2059ft 236kts
31-Dec-17 10:20 47.641520 -122.398482 320 2087ft 251kts
31-Dec-17 10:21 47.634554 -122.489264 226 4003ft 261kts
31-Dec-17 10:22 47.582862 -122.569040 213 7463ft 276kts
31-Dec-17 10:23 47.509247 -122.606967 200 10580ft 292kts
31-Dec-17 10:24 47.425326 -122.654174 202 12119ft 352kts
31-Dec-17 10:25 47.329802 -122.706609 203 14346ft 373kts
31-Dec-17 10:26 47.230662 -122.760843 204 16579ft 387kts
31-Dec-17 10:27 47.127711 -122.817123 204 18638ft 400kts
31-Dec-17 10:28 47.021744 -122.874653 204 20572ft 412kts
31-Dec-17 10:29 46.910459 -122.926176 198 22367ft 426kts
31-Dec-17 10:30 46.794915 -122.970708 198 23967ft 436kts
31-Dec-17 10:31 46.676373 -123.016678 198 25444ft 443kts
31-Dec-17 10:32 46.555963 -123.063244 198 26799ft 451kts
31-Dec-17 10:33 46.433667 -123.109015 193 28085ft 460kts
31-Dec-17 10:34 46.303963 -123.097942 177 29483ft 469kts
31-Dec-17 10:35 46.174548 -123.081789 179 31015ft 463kts
31-Dec-17 10:36 46.046609 -123.065142 179 32296ft 460kts
31-Dec-17 10:37 45.919178 -123.049093 178 32300ft 457kts
31-Dec-17 10:38 45.792619 -123.033083 178 32289ft 456kts
31-Dec-17 10:39 45.666268 -123.017217 178 32238ft 456kts
31-Dec-17 10:40 45.537888 -123.001089 178 32258ft 456kts
31-Dec-17 10:41 45.411553 -122.985430 178 32261ft 456kts
31-Dec-17 10:42 45.290868 -123.015952 208 32256ft 439kts
31-Dec-17 10:43 45.179979 -123.088569 207 32204ft 440kts
31-Dec-17 10:44 45.068288 -123.158669 207 32201ft 439kts
31-Dec-17 10:45 44.956978 -123.228585 207 31790ft 428kts
31-Dec-17 10:46 44.847328 -123.297391 206 28675ft 432kts
31-Dec-17 10:47 44.739649 -123.364437 206 26330ft 416kts
31-Dec-17 10:48 44.634974 -123.429479 205 24011ft 404kts
31-Dec-17 10:49 44.533801 -123.492076 205 21762ft 391kts
31-Dec-17 10:50 44.435521 -123.552631 205 19530ft 379kts
31-Dec-17 10:51 44.340664 -123.610901 205 17298ft 367kts
31-Dec-17 10:52 44.248475 -123.667296 205 15105ft 356kts
31-Dec-17 10:53 44.158973 -123.721916 204 12948ft 345kts
31-Dec-17 10:54 44.073445 -123.773892 204 11518ft 316kts
31-Dec-17 10:55 43.998319 -123.819449 204 10339ft 285kts
31-Dec-17 10:56 43.926226 -123.863050 203 8293ft 277kts
31-Dec-17 10:57 43.852522 -123.907478 203 7200ft 301kts
31-Dec-17 10:58 43.781371 -123.950268 203 6356ft 265kts
31-Dec-17 10:59 43.714391 -123.990440 202 4964ft 260kts
31-Dec-17 11:00 43.652008 -124.027784 201 4341ft 227kts
31-Dec-17 11:01 43.594288 -124.062273 200 3768ft 223kts
31-Dec-17 11:02 43.536937 -124.096414 200 2999ft 225kts
31-Dec-17 11:03 43.480062 -124.130245 199 2997ft 209kts
31-Dec-17 11:04 43.445383 -124.174376 262 2460ft 164kts
31-Dec-17 11:05 43.427353 -124.230036 238 426ft 164kts
31-Dec-17 11:06 43.416145 -124.256674 184 31ft 5kts
31-Dec-17 11:07 43.415582 -124.256472 146 31ft 0kts
31-Dec-17 11:08 43.417720 -124.250526 63 31ft 25kts
31-Dec-17 11:09 43.415545 -124.245176 243 31ft 13kts
31-Dec-17 11:10 43.415179 -124.246330 243 31ft 0kts
31-Dec-17 11:11 43.415179 -124.246330 243 31ft 0kts
31-Dec-17 11:12 43.415179 -124.246330 243 31ft 0kts

Navigation Log

Ident Type
Flight plan parsing failed, navigation log unavailable